Time,TemperatureF,DewpointF,PressureIn,WindDirection,WindDirectionDegrees,WindSpeedMPH,WindSpeedGustMPH,Humidity,HourlyPrecipIn,Conditions,Clouds,dailyrainin,SoftwareType,DateUTC
2013-11-17 00:04:00,-999.0,-99.9,-100.00,SE,140,14.0,26.0,-999,-99.99,,,-99.99,,2013-11-17 05:04:00,
2013-11-17 00:44:00,-999.0,-99.9,-100.00,SSE,153,12.0,18.0,-999,-99.99,,,-99.99,,2013-11-17 05:44:00,
2013-11-17 01:52:00,50.0,-99.9,29.48,North,-999,-999.0,-999.0,-999,-99.99,,,-99.99,,2013-11-17 06:52:00,
2013-11-17 04:33:00,-999.0,-99.9,-100.00,SSE,165,7.0,10.0,-999,-99.99,,,-99.99,,2013-11-17 09:33:00,
2013-11-17 05:13:00,-999.0,-99.9,-100.00,SSE,162,11.0,13.0,-999,-99.99,,,-99.99,,2013-11-17 10:13:00,
2013-11-17 05:53:00,-999.0,-99.9,-100.00,SSE,166,10.0,14.0,-999,-99.99,,,-99.99,,2013-11-17 10:53:00,
2013-11-17 06:03:00,-999.0,-99.9,-100.00,SSE,167,10.0,14.0,-999,-99.99,,,-99.99,,2013-11-17 11:03:00,
2013-11-17 06:23:00,-999.0,-99.9,-100.00,SSE,162,10.0,15.0,-999,-99.99,,,-99.99,,2013-11-17 11:23:00,
2013-11-17 06:33:00,-999.0,-99.9,-100.00,SSE,164,10.0,13.0,-999,-99.99,,,-99.99,,2013-11-17 11:33:00,
2013-11-17 07:22:00,-999.0,-99.9,-100.00,SSE,150,9.0,13.0,-999,-99.99,,,-99.99,,2013-11-17 12:22:00,
2013-11-17 09:02:00,-999.0,-99.9,-100.00,SSE,152,9.0,12.0,-999,-99.99,,,-99.99,,2013-11-17 14:02:00,
2013-11-17 09:11:00,-999.0,-99.9,-100.00,SSE,156,8.0,12.0,-999,-99.99,,,-99.99,,2013-11-17 14:11:00,
2013-11-17 09:32:00,-999.0,-99.9,-100.00,SSE,160,10.0,14.0,-999,-99.99,,,-99.99,,2013-11-17 14:32:00,
2013-11-17 09:52:00,-999.0,-99.9,-100.00,SSE,161,11.0,14.0,-999,-99.99,,,-99.99,,2013-11-17 14:52:00,
2013-11-17 10:22:00,-999.0,-99.9,-100.00,SSE,153,9.0,15.0,-999,-99.99,,,-99.99,,2013-11-17 15:22:00,
2013-11-17 11:13:00,-999.0,-99.9,-100.00,SSE,155,11.0,14.0,-999,-99.99,,,-99.99,,2013-11-17 16:13:00,
2013-11-17 12:12:00,-999.0,-99.9,-100.00,SSE,152,7.0,11.0,-999,-99.99,,,-99.99,,2013-11-17 17:12:00,
2013-11-17 12:34:00,-999.0,-99.9,-100.00,SSE,151,10.0,11.0,-999,-99.99,,,-99.99,,2013-11-17 17:34:00,
2013-11-17 13:03:00,-999.0,-99.9,-100.00,SSE,149,9.0,13.0,-999,-99.99,,,-99.99,,2013-11-17 18:03:00,
2013-11-17 13:12:00,-999.0,-99.9,-100.00,SE,146,10.0,14.0,-999,-99.99,,,-99.99,,2013-11-17 18:12:00,
2013-11-17 14:22:00,-999.0,-99.9,-100.00,SE,142,14.0,21.0,-999,-99.99,,,-99.99,,2013-11-17 19:22:00,
2013-11-17 15:22:00,54.0,-99.9,29.11,North,-999,-999.0,-999.0,-999,-99.99,,,-99.99,,2013-11-17 20:22:00,
2013-11-17 18:03:00,-999.0,-99.9,-100.00,SSE,155,12.0,16.0,-999,-99.99,,,-99.99,,2013-11-17 23:03:00,
2013-11-17 19:02:00,-999.0,-99.9,-100.00,SE,145,9.0,13.0,-999,-99.99,,,-99.99,,2013-11-18 00:02:00,
2013-11-17 19:32:00,-999.0,-99.9,-100.00,SSE,153,8.0,12.0,-999,-99.99,,,-99.99,,2013-11-18 00:32:00,
2013-11-17 19:42:00,-999.0,-99.9,-100.00,SSE,149,8.0,10.0,-999,-99.99,,,-99.99,,2013-11-18 00:42:00,
2013-11-17 19:52:00,51.0,-99.9,28.95,North,-999,-999.0,-999.0,-999,-99.99,,,-99.99,,2013-11-18 00:52:00,
2013-11-17 21:01:00,-999.0,-99.9,-100.00,South,171,5.0,7.0,-999,-99.99,,,-99.99,,2013-11-18 02:01:00,
2013-11-17 21:32:00,-999.0,-99.9,-100.00,WNW,283,14.0,30.0,-999,-99.99,,,-99.99,,2013-11-18 02:32:00,